KDAA/DAA METAR and TAF weather

Enter ICAO airport designator
Station Type Date Time Source
KDAA METAR 2019/06/17 12:56 UTC NOAA

KDAA 171256Z AUTO 00000KT 10SM CLR 27/20 A2997 RMK AO2 SLP151 T02690200 $


Station Type Date Time Source
KDAA Decoded METAR 2019/06/17 12:56 UTC NOAA

Fort Belvoir, VA, United States (KDAA) 38-43N 077-11W
Jun 17, 2019 - 08:56 AM EDT / 2019.06.17 1256 UTC
Wind: Calm:0
Visibility: 10 mile(s):0
Sky conditions: clear
Temperature: 80.4 F (26.9 C)
Dew Point: 68.0 F (20.0 C)
Relative Humidity: 65%
Pressure (altimeter): 29.97 in. Hg (1014 hPa)
ob: KDAA 171256Z AUTO 00000KT 10SM CLR 27/20 A2997 RMK AO2 SLP151 T02690200
cycle: 13

Station Type Date Time Source
KDAA TAF 2019/06/17 09:09 UTC NOAA

TAF TAF KDAA 170900Z 1709/1815 VRB06KT 9999 FEW030 QNH2990INS
TEMPO 1720/1723 VRB25G35KT 8000 -TSRA BKN045CB OVC065
BECMG 1723/1724 VRB06KT 8000 -SHRA FEW040 510553 QNH2990INS
TEMPO 1800/1803 27015G25KT -TSRA FEW040CB BKN055 OVC080
BECMG 1808/1809 VRB06KT 4800 -SHRA OVC015 QNH2990INS
BECMG 1814/1815 VRB06KT 9000 -SHRA BKN025 OVC080 QNH2993INS TX32/1720Z TN20/1808Z

Example: see airport list